Maria S. Merian — DBBT — position and weather

sailwx.info

Track history (hours):
 
Tides and Currents Weather Stations Pressure Air Temp Water Temp Dewpoint Dewpoint Depression Visibility Wind Speed Wind Dir Waves Ship Positions

Oceanographic research ship Maria S. Merian (Germany)

Last reported at 2016-Jun-30 03:00 UTC. Time now 2016-Jun-30 05:12 UTC.
Position N 78°12' E 015°36'.

Length 94.8 m; beam 19.2 m; draft 6.5 m.

Type: Other ship. MMSI: 211753000.

Wind from 310 at 6 knots

Barometer 1017.8 mb
Air temperature 6.2 ° C
Dewpoint 4.9 ° C
Water temperature 6.0 ° C

Date/timePositionNaut miles runAvg speedWind from/ knotsBaromVisibWave heightAir tempDewpointWater temp
2016-Jun-30 03:00N 78°12' E 015°36'0 0.0 310 / 61017.8 6.2 4.9 6.0
2016-Jun-30 02:00N 78°12' E 015°36'0 0.0 330 / 41017.9 6.1 4.7 6.1
2016-Jun-29 22:00N 78°12' E 015°36'0 0.0 340 / 41017.7 6.9 4.7 6.1
2016-Jun-29 21:00N 78°12' E 015°36'0 0.0 350 / 41017.1 7.1 4.5 6.2
2016-Jun-29 20:00N 78°12' E 015°36'0 0.0 340 / 41016.9 7.4 4.6 5.9
2016-Jun-29 19:00N 78°12' E 015°36'0 0.0 020 / 41016.8 9.5 5.2 5.7
2016-Jun-29 18:00N 78°12' E 015°36'0 0.0 230 / 41016.8 8.5 4.3 5.6
2016-Jun-29 17:00N 78°12' E 015°36'0 0.0 230 / 121016.8 7.6 4.9 5.5
2016-Jun-29 16:00N 78°12' E 015°36'0 0.0 330 / 101016.7 8.6 5.2 5.3
2016-Jun-29 15:00N 78°12' E 015°36'0 0.0 290 / 101016.6 8.7 4.3 5.5
2016-Jun-29 14:00N 78°12' E 015°36'0 0.0 290 / 101016.4 8.7 4.5 5.1
2016-Jun-29 13:00N 78°12' E 015°36'0 0.0 230 / 81016.1 9.0 3.8 5.1
2016-Jun-29 12:00N 78°12' E 015°36'0 0.0 230 / 121016.1 8.4 4.9 5.4
2016-Jun-29 11:00N 78°12' E 015°36'0 0.0 240 / 101016.0 8.9 5.4 5.9
2016-Jun-29 10:00N 78°12' E 015°36'9 8.6 310 / 81015.7 8.0 5.4 7.1
2016-Jun-29 09:00N 78°18' E 015°06'1010.4 270 / 81015.8 6.5 5.7 6.9
2016-Jun-29 08:00N 78°12' E 014°24'1211.5 270 / 141015.3 8.2 6.5 5.5
2016-Jun-29 07:00N 78°06' E 013°36'1110.6 200 / 81015.2 5.8 5.8 4.7
2016-Jun-29 06:00N 78°00' E 012°54'1212.1 170 / 101015.1 5.3 5.3 5.2
2016-Jun-29 05:00N 77°48' E 013°00'1212.3 170 / 61015.1 5.2 5.1 4.3
2016-Jun-29 04:00N 77°36' E 013°12'1212.3 190 / 41015.1 5.7 5.7 5.4
2016-Jun-29 03:00N 77°24' E 013°24'1312.6 200 / 41014.9 5.8 5.4 4.9
2016-Jun-29 02:00N 77°12' E 013°42'7 7.2 999 / 21014.6 5.2 5.1 4.5
2016-Jun-29 01:00N 77°06' E 014°00'2713.5 240 / 61014.6 4.9 4.4 3.7
2016-Jun-28 23:00N 76°42' E 014°54'1413.9 110 / 61014.0 4.4 4.0 5.0
2016-Jun-28 22:00N 76°30' E 015°24'9 9.2 090 / 141013.8 4.2 3.8 3.4
2016-Jun-28 21:00N 76°24' E 015°54'1413.9 080 / 141013.5 4.1 4.1 4.0
2016-Jun-28 20:00N 76°12' E 016°24'1414.0 080 / 121013.3 4.8 6.7
2016-Jun-28 19:00N 76°00' E 016°54'1313.3 080 / 121012.9 5.2 5.1 7.3
2016-Jun-28 18:00N 75°48' E 017°18'10 9.5 080 / 161012.8 3.9 3.8 7.0
2016-Jun-28 17:00N 75°42' E 017°48'1414.1 080 / 161012.3 3.2 7.2
2016-Jun-28 16:00N 75°30' E 018°18'1313.4 080 / 171011.9 3.1 3.0 4.2
2016-Jun-28 15:00N 75°18' E 018°42'6 6.2 070 / 171011.3 3.6 3.6 3.2
2016-Jun-28 14:00N 75°12' E 018°48'6 6.2 080 / 171011.1 3.7 3.6 3.4
2016-Jun-28 13:00N 75°06' E 018°54'6 6.0 060 / 191010.9 4.0 3.9 3.3
2016-Jun-28 12:00N 75°12' E 018°54'2 1.5 070 / 171011.2 3.1 3.1 3.5
2016-Jun-28 11:00N 75°12' E 018°48'0 0.0 070 / 171011.0 3.3 3.2 3.6
2016-Jun-28 10:00N 75°12' E 018°48'0 0.0 070 / 161011.2 2.9 2.9 3.5
2016-Jun-28 09:00N 75°12' E 018°48'2 1.5 080 / 161010.9 3.0 3.5
2016-Jun-28 08:00N 75°12' E 018°54'2 1.5 080 / 161010.8 4.0 3.9 3.4
2016-Jun-28 07:00N 75°12' E 018°48'6 6.2 070 / 161010.9 3.8 3.4
2016-Jun-28 06:00N 75°18' E 018°54'2 1.5 060 / 161010.9 3.7 3.7 3.3
2016-Jun-28 05:00N 75°18' E 018°48'1212.0 080 / 161011.8 3.1 3.0 3.4
2016-Jun-28 04:00N 75°06' E 018°48'6 6.2 060 / 161011.6 4.0 4.0 3.3
2016-Jun-28 03:00N 75°00' E 018°54'6 6.0 060 / 141011.7 4.9 4.7 3.0
2016-Jun-28 02:00N 75°06' E 018°54'6 6.0 070 / 121012.0 4.0 4.0 3.3
2016-Jun-28 01:00N 75°12' E 018°54'6 6.2 090 / 121012.1 3.9 3.9 3.4
2016-Jun-28 00:00N 75°18' E 018°48'6 6.0 090 / 101012.0 3.4 3.4 3.4
2016-Jun-27 23:00N 75°12' E 018°48'6 6.0 090 / 101012.3 3.4 3.4 3.3
2016-Jun-27 22:00N 75°06' E 018°48'6 6.0 090 / 81012.7 3.4 3.3 2.8
2016-Jun-27 21:00N 75°00' E 018°48'0 0.0 080 / 81012.6 3.7 3.7 3.0
2016-Jun-27 20:00N 75°00' E 018°48'6 6.0 100 / 61013.3 4.4 4.3 3.8
2016-Jun-27 19:00N 75°06' E 018°48'6 6.2 130 / 81013.6 4.0 2.9
2016-Jun-27 18:00N 75°12' E 018°54'2 1.5 110 / 61013.0 4.8 4.0 3.3
2016-Jun-27 17:00N 75°12' E 018°48'0 0.0 999 / 21013.6 5.0 4.4 3.4
2016-Jun-27 16:00N 75°12' E 018°48'0 0.0 180 / 61013.9 4.5 4.1 3.3
2016-Jun-27 15:00N 75°12' E 018°48'0 0.0 160 / 121014.0 4.5 4.5 3.3
2016-Jun-27 14:00N 75°12' E 018°48'0 0.0 160 / 121013.9 4.8 4.1 3.4
2016-Jun-27 13:00N 75°12' E 018°48'2 1.5 180 / 61014.2 5.3 4.6 3.2
2016-Jun-27 12:00N 75°12' E 018°54'2 1.5 170 / 121014.4 5.4 4.3 3.4
2016-Jun-27 11:00N 75°12' E 018°48'0 0.0 180 / 101014.6 5.5 4.9 3.5
2016-Jun-27 10:00N 75°12' E 018°48'2 1.5 190 / 101014.5 5.0 4.3 3.4
2016-Jun-27 09:00N 75°12' E 018°54'0 0.0 200 / 161014.8 5.4 4.6 3.4
2016-Jun-27 08:00N 75°12' E 018°54'1212.0 200 / 161015.5 6.3 4.5 3.1
2016-Jun-27 07:00N 75°00' E 018°54'6 6.2 200 / 121015.6 6.6 5.3 3.1
2016-Jun-27 06:00N 75°06' E 018°48'6 6.0 200 / 171015.4 5.6 4.5 3.2
2016-Jun-27 05:00N 75°12' E 018°48'0 0.0 180 / 171015.4 5.2 4.6 3.4
2016-Jun-27 04:00N 75°12' E 018°48'6 6.0 190 / 161016.4 4.8 3.3
2016-Jun-27 03:00N 75°06' E 018°48'6 6.0 190 / 161016.8 5.1 4.9 3.2
2016-Jun-27 02:00N 75°00' E 018°48'6 6.0 190 / 141017.5 5.4 5.1 2.7
2016-Jun-27 01:00N 75°06' E 018°48'0 0.0 190 / 161017.4 5.0 4.3 3.0
2016-Jun-27 00:00N 75°06' E 018°48'6 6.0 190 / 161017.2 5.1 4.5 3.2
2016-Jun-26 23:00N 75°12' E 018°48'2 0.8 190 / 161017.6 5.1 4.7 3.4
2016-Jun-26 21:00N 75°12' E 018°54'6 6.2 190 / 161017.3 5.2 4.8 3.3
2016-Jun-26 20:00N 75°06' E 018°48'0 0.0 190 / 141017.8 5.5 4.7 2.8
2016-Jun-26 19:00N 75°06' E 018°48'0 0.0 190 / 161017.8 5.4 4.6 2.8
2016-Jun-26 18:00N 75°06' E 018°48'0 0.0 190 / 171017.7 5.7 4.9 3.0
2016-Jun-26 17:00N 75°06' E 018°48'0 0.0 190 / 161018.0 5.8 5.1 3.2
2016-Jun-26 16:00N 75°06' E 018°48'6 6.0 200 / 141018.3 6.7 6.7 3.1
2016-Jun-26 15:00N 75°00' E 018°48'0 0.0 200 / 121018.8 6.2 6.0 3.0
2016-Jun-26 14:00N 75°00' E 018°48'0 0.0 200 / 121019.1 5.5 5.4 3.0
2016-Jun-26 13:00N 75°00' E 018°48'0 0.0 200 / 101019.4 5.9 5.9 3.0
2016-Jun-26 12:00N 75°00' E 018°48'0 0.0 190 / 121019.4 5.5 5.5 3.0
2016-Jun-26 11:00N 75°00' E 018°48'6 6.2 180 / 121019.2 5.0 5.0 2.9
2016-Jun-26 10:00N 74°54' E 018°54'8 7.6 180 / 101019.8 6.3 6.0 4.8
2016-Jun-26 09:00N 74°48' E 019°12'20 9.8 180 / 81020.1 6.3 5.7 5.9
2016-Jun-26 07:00N 74°30' E 019°42'6 6.0 190 / 101020.0 5.5 4.2 3.8
2016-Jun-26 06:00N 74°24' E 019°42'2 0.8 190 / 101019.9 5.6 3.9 4.1
2016-Jun-26 04:00N 74°24' E 019°36'5 4.8 190 / 81019.8 5.2 4.1 3.8
2016-Jun-26 03:00N 74°24' E 019°18'0 0.0 180 / 81019.8 4.6 3.8 3.5
2016-Jun-26 02:00N 74°24' E 019°18'3 3.2 200 / 81019.7 5.1 4.0 3.5
2016-Jun-26 01:00N 74°24' E 019°30'0 0.0 210 / 81019.3 5.4 4.0 3.5
2016-Jun-26 00:00N 74°24' E 019°30'0 0.0 190 / 61019.7 5.5 4.4 3.6
2016-Jun-25 23:00N 74°24' E 019°30'6 3.2 190 / 41019.5 5.8 3.5 3.5
2016-Jun-25 21:00N 74°24' E 019°54'0 0.0 999 / 21019.3 5.7 3.6 4.2
2016-Jun-25 20:00N 74°24' E 019°54'0 0.0 999 / 21018.9 5.4 4.0 4.3
2016-Jun-25 19:00N 74°24' E 019°54'0 0.0 999 / 21018.7 6.6 4.9 2.6
2016-Jun-25 18:00N 74°24' E 019°54'6 6.5 999 / 21018.4 5.6 4.7 3.1
2016-Jun-25 17:00N 74°24' E 019°30'3 3.2 230 / 41018.3 6.9 4.8 3.9
2016-Jun-25 16:00N 74°24' E 019°42'2 0.8 220 / 41017.8 6.5 4.3 2.3
2016-Jun-25 14:00N 74°24' E 019°36'5 4.8 999 / 21017.4 6.2 4.3 4.1
2016-Jun-25 13:00N 74°24' E 019°54'0 0.0 999 / 21017.0 8.4 5.2 3.9
2016-Jun-25 12:00N 74°24' E 019°54'0 0.0 999 / 21016.9 6.2 2.0 3.9
2016-Jun-25 11:00N 74°24' E 019°54'0 0.0 999 / 21016.6 5.3 3.0 3.4
2016-Jun-25 10:00N 74°24' E 019°54'2 1.6 999 / 21016.5 7.0 2.2 4.0
2016-Jun-25 09:00N 74°24' E 019°48'0 0.0 999 1016.1 9.0 4.6 4.0
2016-Jun-25 08:00N 74°24' E 019°48'2 1.6 999 / 21015.7 7.1 4.0 3.2
2016-Jun-25 07:00N 74°24' E 019°54'2 1.6 999 1015.4 7.3 4.8 3.2
2016-Jun-25 06:00N 74°24' E 019°48'5 4.8 999 / 21015.2 4.7 3.8 3.8
2016-Jun-25 05:00N 74°24' E 019°30'5 4.8 999 / 21014.8 5.2 4.4 3.6
2016-Jun-25 04:00N 74°24' E 019°12'5 4.8 999 / 21014.7 4.9 4.2 3.3
2016-Jun-25 03:00N 74°24' E 019°30'3 3.2 999 / 21014.6 5.7 4.3 3.3
2016-Jun-25 02:00N 74°24' E 019°18'2 1.6 140 / 41014.5 4.3 3.9 3.4
2016-Jun-25 01:00N 74°24' E 019°12'0 0.0 999 1014.7 4.1 3.4 3.5
2016-Jun-25 00:00N 74°24' E 019°12'3 3.2 999 1014.5 5.9 3.4 3.7
2016-Jun-24 23:00N 74°24' E 019°24'0 0.0 999 / 21014.7 5.5 4.2 3.5
2016-Jun-24 22:00N 74°24' E 019°24'2 1.6 999 1014.3 5.2 3.6 3.2
2016-Jun-24 21:00N 74°24' E 019°18'2 1.6 999 / 21014.1 6.3 3.6 3.6
2016-Jun-24 20:00N 74°24' E 019°12'0 0.0 290 / 61014.1 7.4 4.2 3.7
2016-Jun-24 19:00N 74°24' E 019°12'0 0.0 270 / 61014.0 9.1 5.8 3.6
2016-Jun-24 18:00N 74°24' E 019°12'0 0.0 280 / 121013.8 7.4 5.5 3.6
2016-Jun-24 17:00N 74°24' E 019°12'0 0.0 270 / 81013.3 7.4 4.7 3.5
2016-Jun-24 16:00N 74°24' E 019°12'2 0.8 290 / 141013.1 6.9 4.9 3.6
2016-Jun-24 14:00N 74°24' E 019°18'2 1.6 250 / 141013.3 8.3 5.6 3.3
2016-Jun-24 13:00N 74°24' E 019°12'0 0.0 240 / 101013.4 6.0 4.6 3.4
2016-Jun-24 12:00N 74°24' E 019°12'0 0.0 220 / 81012.9 8.4 6.4 3.6
2016-Jun-24 11:00N 74°24' E 019°12'0 0.0 200 / 81012.8 8.4 7.0 3.7
2016-Jun-24 09:00N 74°24' E 019°12'3 3.2 210 / 81012.9 6.9 6.6 3.5
2016-Jun-24 08:00N 74°24' E 019°24'0 0.0 220 / 121012.8 5.3 5.3 3.4
2016-Jun-24 07:00N 74°24' E 019°24'3 3.2 220 / 121012.5 4.6 3.4
2016-Jun-24 06:00N 74°24' E 019°12'5 4.8 210 / 121012.0 5.7 5.7 3.4
2016-Jun-24 05:00N 74°24' E 019°30'3 3.2 220 / 141012.3 4.6 3.5
2016-Jun-24 04:00N 74°24' E 019°18'2 1.6 220 / 121012.4 5.4 5.4 3.4
2016-Jun-24 03:00N 74°24' E 019°24'2 1.6 200 / 171012.4 5.2 5.2 3.4
2016-Jun-24 02:00N 74°24' E 019°30'5 4.8 190 / 161012.9 4.9 4.9 3.2
2016-Jun-24 01:00N 74°24' E 019°12'5 4.8 180 / 141013.1 5.0 5.0 3.5
2016-Jun-24 00:00N 74°24' E 019°30'2 1.6 160 / 161013.7 5.6 5.0 3.1
2016-Jun-23 23:00N 74°24' E 019°24'3 3.2 180 / 161014.2 5.2 4.7 3.3
2016-Jun-23 22:00N 74°24' E 019°12'0 0.0 180 / 101014.5 5.5 4.7 3.6
2016-Jun-23 21:00N 74°24' E 019°12'2 1.6 190 / 141014.7 5.9 5.0 3.5
2016-Jun-23 20:00N 74°24' E 019°18'2 1.6 200 / 121015.0 5.2 4.2 3.5
2016-Jun-23 19:00N 74°24' E 019°24'0 0.0 210 / 81015.2 5.0 4.0 3.4
2016-Jun-23 17:00N 74°24' E 019°24'0 0.0 210 / 121015.5 5.0 4.1 3.6
2016-Jun-23 16:00N 74°24' E 019°24'2 1.6 230 / 161015.5 6.8 4.8 3.5
2016-Jun-23 15:00N 74°24' E 019°30'3 3.2 220 / 121015.7 4.9 4.0 3.7
2016-Jun-23 14:00N 74°24' E 019°18'0 0.0 230 / 141015.6 6.0 4.0 3.4
2016-Jun-23 13:00N 74°24' E 019°18'3 3.2 220 / 141015.6 5.7 4.7 3.2
2016-Jun-23 12:00N 74°24' E 019°30'0 0.0 230 / 141015.6 5.6 5.0 3.3
2016-Jun-23 11:00N 74°24' E 019°30'0 0.0 230 / 141015.4 5.5 4.6 3.2
2016-Jun-23 09:00N 74°24' E 019°30'3 3.2 230 / 41014.9 5.7 4.3 3.2
2016-Jun-23 08:00N 74°24' E 019°42'5 4.8 230 / 101014.5 4.7 3.8 3.5
2016-Jun-23 07:00N 74°24' E 020°00'0 0.0 240 / 81014.2 4.9 3.7 2.2
2016-Jun-23 06:00N 74°24' E 020°00'2 1.6 250 / 101014.0 4.5 4.0 2.3
2016-Jun-23 05:00N 74°24' E 019°54'1413.6 240 / 81013.9 4.4 3.8 3.6
2016-Jun-23 04:00N 74°36' E 019°30'1413.6 240 / 121013.4 4.5 4.5 2.8
2016-Jun-23 03:00N 74°48' E 019°06'1413.5 230 / 141013.0 4.7 4.2 4.1
2016-Jun-23 02:00N 75°00' E 018°42'9 8.6 250 / 121012.6 5.4 4.7 4.8
2016-Jun-23 01:00N 75°06' E 018°18'1313.5 240 / 141013.3 5.1 4.1 2.5
2016-Jun-23 00:00N 75°18' E 017°54'1313.4 230 / 121013.0 5.7 4.9 4.3
2016-Jun-22 23:00N 75°30' E 017°30'10 9.6 240 / 161012.0 6.2 4.6 6.0
2016-Jun-22 22:00N 75°36' E 017°00'1313.4 240 / 161011.2 6.4 5.3 6.1
2016-Jun-22 21:00N 75°48' E 016°36'1313.3 230 / 161010.7 6.3 5.4 6.0
2016-Jun-22 20:00N 76°00' E 016°12'1414.0 230 / 161011.2 5.7 4.9 4.9
2016-Jun-22 19:00N 76°12' E 015°42'1313.3 230 / 141010.8 6.0 5.2 5.4
2016-Jun-22 18:00N 76°24' E 015°18'9 9.2 230 / 141010.4 5.7 5.0 4.2
2016-Jun-22 17:00N 76°30' E 014°48'1413.9 220 / 121009.8 5.9 5.1 2.4
2016-Jun-22 16:00N 76°42' E 014°18'1313.2 220 / 121009.9 5.5 5.5 3.7
2016-Jun-22 15:00N 76°54' E 013°54'1313.2 210 / 101009.7 4.9 4.8 3.6
2016-Jun-22 14:00N 77°06' E 013°30'8 8.0 200 / 81009.5 5.2 5.1 4.8
2016-Jun-22 13:00N 77°12' E 013°06'1313.1 200 / 101009.3 5.3 4.8 4.9
2016-Jun-22 12:00N 77°24' E 012°42'2612.8 170 / 101008.9 5.1 5.0 5.0
2016-Jun-22 10:00N 77°48' E 012°00'20 9.8 180 / 121008.9 4.8 4.6 3.9
2016-Jun-22 08:00N 78°06' E 011°24'7911.4 180 / 141009.4 5.4 4.7 5.7
2016-Jun-22 01:00N 79°24' E 010°06'1212.0 160 / 171008.1 4.5 4.0 4.0
2016-Jun-22 00:00N 79°36' E 010°00'39 9.8 160 / 211008.0 4.6 4.0 4.0
2016-Jun-21 20:00N 80°00' E 012°54'3010.0 100 / 81007.2 4.0 3.2 4.0
2016-Jun-21 17:00N 79°54' E 015°42'1 1.1 120 / 61008.1 5.7 3.0 4.3
2016-Jun-21 16:00N 79°54' E 015°48'0 0.0 060 / 41008.4 4.4 2.2 3.8
2016-Jun-21 15:00N 79°54' E 015°48'0 0.0 030 / 61008.7 4.2 2.6 3.9
2016-Jun-21 12:00N 79°54' E 015°48'0 0.0 020 / 41008.2 4.7 2.7 3.8
2016-Jun-21 11:00N 79°54' E 015°48'0 0.0 020 / 41008.0 5.6 3.0 3.8
2016-Jun-21 10:00N 79°54' E 015°48'0 0.0 330 / 81007.8 3.7 2.2 3.9
2016-Jun-21 09:00N 79°54' E 015°48'0 0.0 320 / 101007.5 4.0 2.8 3.8
2016-Jun-21 08:00N 79°54' E 015°48'2 0.3 340 / 81007.2 4.5 2.7 3.8
2016-Jun-21 00:00N 79°54' E 015°36'1 0.2 180 / 351003.4 5.7 1.5 3.9
2016-Jun-20 19:00N 79°54' E 015°42'0 0.0 190 / 331000.7 6.6 1.5 3.5
2016-Jun-20 17:00N 79°54' E 015°42'0 0.0 190 / 311000.6 7.2 1.8 3.6
2016-Jun-20 16:00N 79°54' E 015°42'2 1.1 190 / 291000.3 7.3 1.0 3.6
2016-Jun-20 14:00N 79°54' E 015°54'0 0.0 190 / 231000.5 7.7 0.6 3.7
2016-Jun-20 13:00N 79°54' E 015°54'0 0.0 200 / 171000.8 7.8 0.7 3.8
2016-Jun-20 11:00N 79°54' E 015°54'0 0.0 190 / 171000.5 8.0-0.6 3.7
2016-Jun-20 10:00N 79°54' E 015°54'1 1.1 190 / 211000.1 7.6-0.6 3.7
2016-Jun-20 09:00N 79°54' E 015°48'1 0.3 190 / 251000.5 6.3 0.1 3.7
2016-Jun-20 05:00N 79°54' E 015°42'2 2.1 190 / 271000.8 4.9 0.3 3.6
2016-Jun-20 04:00N 79°54' E 015°30'   180 / 311000.8 4.7 0.5 3.7
Track history (hours):
 
Tides and Currents Weather Stations Pressure Air Temp Water Temp Dewpoint Dewpoint Depression Visibility Wind Speed Wind Dir Waves Ship Positions

Oceanographic research ship Maria S. Merian (Germany)

Last reported at 2016-Jun-30 03:00 UTC. Time now 2016-Jun-30 05:12 UTC.
Position N 78°12' E 015°36'.

Length 94.8 m; beam 19.2 m; draft 6.5 m.

Type: Other ship. MMSI: 211753000.

Wind from 310 at 6 knots

Barometer 1017.8 mb
Air temperature 6.2 ° C
Dewpoint 4.9 ° C
Water temperature 6.0 ° C

Date/timePositionNaut miles runAvg speedWind from/ knotsBaromVisibWave heightAir tempDewpointWater temp
2016-Jun-30 03:00N 78°12' E 015°36'0 0.0 310 / 61017.8 6.2 4.9 6.0
2016-Jun-30 02:00N 78°12' E 015°36'0 0.0 330 / 41017.9 6.1 4.7 6.1
2016-Jun-29 22:00N 78°12' E 015°36'0 0.0 340 / 41017.7 6.9 4.7 6.1
2016-Jun-29 21:00N 78°12' E 015°36'0 0.0 350 / 41017.1 7.1 4.5 6.2
2016-Jun-29 20:00N 78°12' E 015°36'0 0.0 340 / 41016.9 7.4 4.6 5.9
2016-Jun-29 19:00N 78°12' E 015°36'0 0.0 020 / 41016.8 9.5 5.2 5.7
2016-Jun-29 18:00N 78°12' E 015°36'0 0.0 230 / 41016.8 8.5 4.3 5.6
2016-Jun-29 17:00N 78°12' E 015°36'0 0.0 230 / 121016.8 7.6 4.9 5.5
2016-Jun-29 16:00N 78°12' E 015°36'0 0.0 330 / 101016.7 8.6 5.2 5.3
2016-Jun-29 15:00N 78°12' E 015°36'0 0.0 290 / 101016.6 8.7 4.3 5.5
2016-Jun-29 14:00N 78°12' E 015°36'0 0.0 290 / 101016.4 8.7 4.5 5.1
2016-Jun-29 13:00N 78°12' E 015°36'0 0.0 230 / 81016.1 9.0 3.8 5.1
2016-Jun-29 12:00N 78°12' E 015°36'0 0.0 230 / 121016.1 8.4 4.9 5.4
2016-Jun-29 11:00N 78°12' E 015°36'0 0.0 240 / 101016.0 8.9 5.4 5.9
2016-Jun-29 10:00N 78°12' E 015°36'9 8.6 310 / 81015.7 8.0 5.4 7.1
2016-Jun-29 09:00N 78°18' E 015°06'1010.4 270 / 81015.8 6.5 5.7 6.9
2016-Jun-29 08:00N 78°12' E 014°24'1211.5 270 / 141015.3 8.2 6.5 5.5
2016-Jun-29 07:00N 78°06' E 013°36'1110.6 200 / 81015.2 5.8 5.8 4.7
2016-Jun-29 06:00N 78°00' E 012°54'1212.1 170 / 101015.1 5.3 5.3 5.2
2016-Jun-29 05:00N 77°48' E 013°00'1212.3 170 / 61015.1 5.2 5.1 4.3
2016-Jun-29 04:00N 77°36' E 013°12'1212.3 190 / 41015.1 5.7 5.7 5.4
2016-Jun-29 03:00N 77°24' E 013°24'1312.6 200 / 41014.9 5.8 5.4 4.9
2016-Jun-29 02:00N 77°12' E 013°42'7 7.2 999 / 21014.6 5.2 5.1 4.5
2016-Jun-29 01:00N 77°06' E 014°00'2713.5 240 / 61014.6 4.9 4.4 3.7
2016-Jun-28 23:00N 76°42' E 014°54'1413.9 110 / 61014.0 4.4 4.0 5.0
2016-Jun-28 22:00N 76°30' E 015°24'9 9.2 090 / 141013.8 4.2 3.8 3.4
2016-Jun-28 21:00N 76°24' E 015°54'1413.9 080 / 141013.5 4.1 4.1 4.0
2016-Jun-28 20:00N 76°12' E 016°24'1414.0 080 / 121013.3 4.8 6.7
2016-Jun-28 19:00N 76°00' E 016°54'1313.3 080 / 121012.9 5.2 5.1 7.3
2016-Jun-28 18:00N 75°48' E 017°18'10 9.5 080 / 161012.8 3.9 3.8 7.0
2016-Jun-28 17:00N 75°42' E 017°48'1414.1 080 / 161012.3 3.2 7.2
2016-Jun-28 16:00N 75°30' E 018°18'1313.4 080 / 171011.9 3.1 3.0 4.2
2016-Jun-28 15:00N 75°18' E 018°42'6 6.2 070 / 171011.3 3.6 3.6 3.2
2016-Jun-28 14:00N 75°12' E 018°48'6 6.2 080 / 171011.1 3.7 3.6 3.4
2016-Jun-28 13:00N 75°06' E 018°54'6 6.0 060 / 191010.9 4.0 3.9 3.3
2016-Jun-28 12:00N 75°12' E 018°54'2 1.5 070 / 171011.2 3.1 3.1 3.5
2016-Jun-28 11:00N 75°12' E 018°48'0 0.0 070 / 171011.0 3.3 3.2 3.6
2016-Jun-28 10:00N 75°12' E 018°48'0 0.0 070 / 161011.2 2.9 2.9 3.5
2016-Jun-28 09:00N 75°12' E 018°48'2 1.5 080 / 161010.9 3.0 3.5
2016-Jun-28 08:00N 75°12' E 018°54'2 1.5 080 / 161010.8 4.0 3.9 3.4
2016-Jun-28 07:00N 75°12' E 018°48'6 6.2 070 / 161010.9 3.8 3.4
2016-Jun-28 06:00N 75°18' E 018°54'2 1.5 060 / 161010.9 3.7 3.7 3.3
2016-Jun-28 05:00N 75°18' E 018°48'1212.0 080 / 161011.8 3.1 3.0 3.4
2016-Jun-28 04:00N 75°06' E 018°48'6 6.2 060 / 161011.6 4.0 4.0 3.3
2016-Jun-28 03:00N 75°00' E 018°54'6 6.0 060 / 141011.7 4.9 4.7 3.0
2016-Jun-28 02:00N 75°06' E 018°54'6 6.0 070 / 121012.0 4.0 4.0 3.3
2016-Jun-28 01:00N 75°12' E 018°54'6 6.2 090 / 121012.1 3.9 3.9 3.4
2016-Jun-28 00:00N 75°18' E 018°48'6 6.0 090 / 101012.0 3.4 3.4 3.4
2016-Jun-27 23:00N 75°12' E 018°48'6 6.0 090 / 101012.3 3.4 3.4 3.3
2016-Jun-27 22:00N 75°06' E 018°48'6 6.0 090 / 81012.7 3.4 3.3 2.8
2016-Jun-27 21:00N 75°00' E 018°48'0 0.0 080 / 81012.6 3.7 3.7 3.0
2016-Jun-27 20:00N 75°00' E 018°48'6 6.0 100 / 61013.3 4.4 4.3 3.8
2016-Jun-27 19:00N 75°06' E 018°48'6 6.2 130 / 81013.6 4.0 2.9
2016-Jun-27 18:00N 75°12' E 018°54'2 1.5 110 / 61013.0 4.8 4.0 3.3
2016-Jun-27 17:00N 75°12' E 018°48'0 0.0 999 / 21013.6 5.0 4.4 3.4
2016-Jun-27 16:00N 75°12' E 018°48'0 0.0 180 / 61013.9 4.5 4.1 3.3
2016-Jun-27 15:00N 75°12' E 018°48'0 0.0 160 / 121014.0 4.5 4.5 3.3
2016-Jun-27 14:00N 75°12' E 018°48'0 0.0 160 / 121013.9 4.8 4.1 3.4
2016-Jun-27 13:00N 75°12' E 018°48'2 1.5 180 / 61014.2 5.3 4.6 3.2
2016-Jun-27 12:00N 75°12' E 018°54'2 1.5 170 / 121014.4 5.4 4.3 3.4
2016-Jun-27 11:00N 75°12' E 018°48'0 0.0 180 / 101014.6 5.5 4.9 3.5
2016-Jun-27 10:00N 75°12' E 018°48'2 1.5 190 / 101014.5 5.0 4.3 3.4
2016-Jun-27 09:00N 75°12' E 018°54'0 0.0 200 / 161014.8 5.4 4.6 3.4
2016-Jun-27 08:00N 75°12' E 018°54'1212.0 200 / 161015.5 6.3 4.5 3.1
2016-Jun-27 07:00N 75°00' E 018°54'6 6.2 200 / 121015.6 6.6 5.3 3.1
2016-Jun-27 06:00N 75°06' E 018°48'6 6.0 200 / 171015.4 5.6 4.5 3.2
2016-Jun-27 05:00N 75°12' E 018°48'0 0.0 180 / 171015.4 5.2 4.6 3.4
2016-Jun-27 04:00N 75°12' E 018°48'6 6.0 190 / 161016.4 4.8 3.3
2016-Jun-27 03:00N 75°06' E 018°48'6 6.0 190 / 161016.8 5.1 4.9 3.2
2016-Jun-27 02:00N 75°00' E 018°48'6 6.0 190 / 141017.5 5.4 5.1 2.7
2016-Jun-27 01:00N 75°06' E 018°48'0 0.0 190 / 161017.4 5.0 4.3 3.0
2016-Jun-27 00:00N 75°06' E 018°48'6 6.0 190 / 161017.2 5.1 4.5 3.2
2016-Jun-26 23:00N 75°12' E 018°48'2 0.8 190 / 161017.6 5.1 4.7 3.4
2016-Jun-26 21:00N 75°12' E 018°54'6 6.2 190 / 161017.3 5.2 4.8 3.3
2016-Jun-26 20:00N 75°06' E 018°48'0 0.0 190 / 141017.8 5.5 4.7 2.8
2016-Jun-26 19:00N 75°06' E 018°48'0 0.0 190 / 161017.8 5.4 4.6 2.8
2016-Jun-26 18:00N 75°06' E 018°48'0 0.0 190 / 171017.7 5.7 4.9 3.0
2016-Jun-26 17:00N 75°06' E 018°48'0 0.0 190 / 161018.0 5.8 5.1 3.2
2016-Jun-26 16:00N 75°06' E 018°48'6 6.0 200 / 141018.3 6.7 6.7 3.1
2016-Jun-26 15:00N 75°00' E 018°48'0 0.0 200 / 121018.8 6.2 6.0 3.0
2016-Jun-26 14:00N 75°00' E 018°48'0 0.0 200 / 121019.1 5.5 5.4 3.0
2016-Jun-26 13:00N 75°00' E 018°48'0 0.0 200 / 101019.4 5.9 5.9 3.0
2016-Jun-26 12:00N 75°00' E 018°48'0 0.0 190 / 121019.4 5.5 5.5 3.0
2016-Jun-26 11:00N 75°00' E 018°48'6 6.2 180 / 121019.2 5.0 5.0 2.9
2016-Jun-26 10:00N 74°54' E 018°54'8 7.6 180 / 101019.8 6.3 6.0 4.8
2016-Jun-26 09:00N 74°48' E 019°12'20 9.8 180 / 81020.1 6.3 5.7 5.9
2016-Jun-26 07:00N 74°30' E 019°42'6 6.0 190 / 101020.0 5.5 4.2 3.8
2016-Jun-26 06:00N 74°24' E 019°42'2 0.8 190 / 101019.9 5.6 3.9 4.1
2016-Jun-26 04:00N 74°24' E 019°36'5 4.8 190 / 81019.8 5.2 4.1 3.8
2016-Jun-26 03:00N 74°24' E 019°18'0 0.0 180 / 81019.8 4.6 3.8 3.5
2016-Jun-26 02:00N 74°24' E 019°18'3 3.2 200 / 81019.7 5.1 4.0 3.5
2016-Jun-26 01:00N 74°24' E 019°30'0 0.0 210 / 81019.3 5.4 4.0 3.5
2016-Jun-26 00:00N 74°24' E 019°30'0 0.0 190 / 61019.7 5.5 4.4 3.6
2016-Jun-25 23:00N 74°24' E 019°30'6 3.2 190 / 41019.5 5.8 3.5 3.5
2016-Jun-25 21:00N 74°24' E 019°54'0 0.0 999 / 21019.3 5.7 3.6 4.2
2016-Jun-25 20:00N 74°24' E 019°54'0 0.0 999 / 21018.9 5.4 4.0 4.3
2016-Jun-25 19:00N 74°24' E 019°54'0 0.0 999 / 21018.7 6.6 4.9 2.6
2016-Jun-25 18:00N 74°24' E 019°54'6 6.5 999 / 21018.4 5.6 4.7 3.1
2016-Jun-25 17:00N 74°24' E 019°30'3 3.2 230 / 41018.3 6.9 4.8 3.9
2016-Jun-25 16:00N 74°24' E 019°42'2 0.8 220 / 41017.8 6.5 4.3 2.3
2016-Jun-25 14:00N 74°24' E 019°36'5 4.8 999 / 21017.4 6.2 4.3 4.1
2016-Jun-25 13:00N 74°24' E 019°54'0 0.0 999 / 21017.0 8.4 5.2 3.9
2016-Jun-25 12:00N 74°24' E 019°54'0 0.0 999 / 21016.9 6.2 2.0 3.9
2016-Jun-25 11:00N 74°24' E 019°54'0 0.0 999 / 21016.6 5.3 3.0 3.4
2016-Jun-25 10:00N 74°24' E 019°54'2 1.6 999 / 21016.5 7.0 2.2 4.0
2016-Jun-25 09:00N 74°24' E 019°48'0 0.0 999 1016.1 9.0 4.6 4.0
2016-Jun-25 08:00N 74°24' E 019°48'2 1.6 999 / 21015.7 7.1 4.0 3.2
2016-Jun-25 07:00N 74°24' E 019°54'2 1.6 999 1015.4 7.3 4.8 3.2
2016-Jun-25 06:00N 74°24' E 019°48'5 4.8 999 / 21015.2 4.7 3.8 3.8
2016-Jun-25 05:00N 74°24' E 019°30'5 4.8 999 / 21014.8 5.2 4.4 3.6
2016-Jun-25 04:00N 74°24' E 019°12'5 4.8 999 / 21014.7 4.9 4.2 3.3
2016-Jun-25 03:00N 74°24' E 019°30'3 3.2 999 / 21014.6 5.7 4.3 3.3
2016-Jun-25 02:00N 74°24' E 019°18'2 1.6 140 / 41014.5 4.3 3.9 3.4
2016-Jun-25 01:00N 74°24' E 019°12'0 0.0 999 1014.7 4.1 3.4 3.5
2016-Jun-25 00:00N 74°24' E 019°12'3 3.2 999 1014.5 5.9 3.4 3.7
2016-Jun-24 23:00N 74°24' E 019°24'0 0.0 999 / 21014.7 5.5 4.2 3.5
2016-Jun-24 22:00N 74°24' E 019°24'2 1.6 999 1014.3 5.2 3.6 3.2
2016-Jun-24 21:00N 74°24' E 019°18'2 1.6 999 / 21014.1 6.3 3.6 3.6
2016-Jun-24 20:00N 74°24' E 019°12'0 0.0 290 / 61014.1 7.4 4.2 3.7
2016-Jun-24 19:00N 74°24' E 019°12'0 0.0 270 / 61014.0 9.1 5.8 3.6
2016-Jun-24 18:00N 74°24' E 019°12'0 0.0 280 / 121013.8 7.4 5.5 3.6
2016-Jun-24 17:00N 74°24' E 019°12'0 0.0 270 / 81013.3 7.4 4.7 3.5
2016-Jun-24 16:00N 74°24' E 019°12'2 0.8 290 / 141013.1 6.9 4.9 3.6
2016-Jun-24 14:00N 74°24' E 019°18'2 1.6 250 / 141013.3 8.3 5.6 3.3
2016-Jun-24 13:00N 74°24' E 019°12'0 0.0 240 / 101013.4 6.0 4.6 3.4
2016-Jun-24 12:00N 74°24' E 019°12'0 0.0 220 / 81012.9 8.4 6.4 3.6
2016-Jun-24 11:00N 74°24' E 019°12'0 0.0 200 / 81012.8 8.4 7.0 3.7
2016-Jun-24 09:00N 74°24' E 019°12'3 3.2 210 / 81012.9 6.9 6.6 3.5
2016-Jun-24 08:00N 74°24' E 019°24'0 0.0 220 / 121012.8 5.3 5.3 3.4
2016-Jun-24 07:00N 74°24' E 019°24'3 3.2 220 / 121012.5 4.6 3.4
2016-Jun-24 06:00N 74°24' E 019°12'5 4.8 210 / 121012.0 5.7 5.7 3.4
2016-Jun-24 05:00N 74°24' E 019°30'3 3.2 220 / 141012.3 4.6 3.5
2016-Jun-24 04:00N 74°24' E 019°18'2 1.6 220 / 121012.4 5.4 5.4 3.4
2016-Jun-24 03:00N 74°24' E 019°24'2 1.6 200 / 171012.4 5.2 5.2 3.4
2016-Jun-24 02:00N 74°24' E 019°30'5 4.8 190 / 161012.9 4.9 4.9 3.2
2016-Jun-24 01:00N 74°24' E 019°12'5 4.8 180 / 141013.1 5.0 5.0 3.5
2016-Jun-24 00:00N 74°24' E 019°30'2 1.6 160 / 161013.7 5.6 5.0 3.1
2016-Jun-23 23:00N 74°24' E 019°24'3 3.2 180 / 161014.2 5.2 4.7 3.3
2016-Jun-23 22:00N 74°24' E 019°12'0 0.0 180 / 101014.5 5.5 4.7 3.6
2016-Jun-23 21:00N 74°24' E 019°12'2 1.6 190 / 141014.7 5.9 5.0 3.5
2016-Jun-23 20:00N 74°24' E 019°18'2 1.6 200 / 121015.0 5.2 4.2 3.5
2016-Jun-23 19:00N 74°24' E 019°24'0 0.0 210 / 81015.2 5.0 4.0 3.4
2016-Jun-23 17:00N 74°24' E 019°24'0 0.0 210 / 121015.5 5.0 4.1 3.6
2016-Jun-23 16:00N 74°24' E 019°24'2 1.6 230 / 161015.5 6.8 4.8 3.5
2016-Jun-23 15:00N 74°24' E 019°30'3 3.2 220 / 121015.7 4.9 4.0 3.7
2016-Jun-23 14:00N 74°24' E 019°18'0 0.0 230 / 141015.6 6.0 4.0 3.4
2016-Jun-23 13:00N 74°24' E 019°18'3 3.2 220 / 141015.6 5.7 4.7 3.2
2016-Jun-23 12:00N 74°24' E 019°30'0 0.0 230 / 141015.6 5.6 5.0 3.3
2016-Jun-23 11:00N 74°24' E 019°30'0 0.0 230 / 141015.4 5.5 4.6 3.2
2016-Jun-23 09:00N 74°24' E 019°30'3 3.2 230 / 41014.9 5.7 4.3 3.2
2016-Jun-23 08:00N 74°24' E 019°42'5 4.8 230 / 101014.5 4.7 3.8 3.5
2016-Jun-23 07:00N 74°24' E 020°00'0 0.0 240 / 81014.2 4.9 3.7 2.2
2016-Jun-23 06:00N 74°24' E 020°00'2 1.6 250 / 101014.0 4.5 4.0 2.3
2016-Jun-23 05:00N 74°24' E 019°54'1413.6 240 / 81013.9 4.4 3.8 3.6
2016-Jun-23 04:00N 74°36' E 019°30'1413.6 240 / 121013.4 4.5 4.5 2.8
2016-Jun-23 03:00N 74°48' E 019°06'1413.5 230 / 141013.0 4.7 4.2 4.1
2016-Jun-23 02:00N 75°00' E 018°42'9 8.6 250 / 121012.6 5.4 4.7 4.8
2016-Jun-23 01:00N 75°06' E 018°18'1313.5 240 / 141013.3 5.1 4.1 2.5
2016-Jun-23 00:00N 75°18' E 017°54'1313.4 230 / 121013.0 5.7 4.9 4.3
2016-Jun-22 23:00N 75°30' E 017°30'10 9.6 240 / 161012.0 6.2 4.6 6.0
2016-Jun-22 22:00N 75°36' E 017°00'1313.4 240 / 161011.2 6.4 5.3 6.1
2016-Jun-22 21:00N 75°48' E 016°36'1313.3 230 / 161010.7 6.3 5.4 6.0
2016-Jun-22 20:00N 76°00' E 016°12'1414.0 230 / 161011.2 5.7 4.9 4.9
2016-Jun-22 19:00N 76°12' E 015°42'1313.3 230 / 141010.8 6.0 5.2 5.4
2016-Jun-22 18:00N 76°24' E 015°18'9 9.2 230 / 141010.4 5.7 5.0 4.2
2016-Jun-22 17:00N 76°30' E 014°48'1413.9 220 / 121009.8 5.9 5.1 2.4
2016-Jun-22 16:00N 76°42' E 014°18'1313.2 220 / 121009.9 5.5 5.5 3.7
2016-Jun-22 15:00N 76°54' E 013°54'1313.2 210 / 101009.7 4.9 4.8 3.6
2016-Jun-22 14:00N 77°06' E 013°30'8 8.0 200 / 81009.5 5.2 5.1 4.8
2016-Jun-22 13:00N 77°12' E 013°06'1313.1 200 / 101009.3 5.3 4.8 4.9
2016-Jun-22 12:00N 77°24' E 012°42'2612.8 170 / 101008.9 5.1 5.0 5.0
2016-Jun-22 10:00N 77°48' E 012°00'20 9.8 180 / 121008.9 4.8 4.6 3.9
2016-Jun-22 08:00N 78°06' E 011°24'7911.4 180 / 141009.4 5.4 4.7 5.7
2016-Jun-22 01:00N 79°24' E 010°06'1212.0 160 / 171008.1 4.5 4.0 4.0
2016-Jun-22 00:00N 79°36' E 010°00'39 9.8 160 / 211008.0 4.6 4.0 4.0
2016-Jun-21 20:00N 80°00' E 012°54'3010.0 100 / 81007.2 4.0 3.2 4.0
2016-Jun-21 17:00N 79°54' E 015°42'1 1.1 120 / 61008.1 5.7 3.0 4.3
2016-Jun-21 16:00N 79°54' E 015°48'0 0.0 060 / 41008.4 4.4 2.2 3.8
2016-Jun-21 15:00N 79°54' E 015°48'0 0.0 030 / 61008.7 4.2 2.6 3.9
2016-Jun-21 12:00N 79°54' E 015°48'0 0.0 020 / 41008.2 4.7 2.7 3.8
2016-Jun-21 11:00N 79°54' E 015°48'0 0.0 020 / 41008.0 5.6 3.0 3.8
2016-Jun-21 10:00N 79°54' E 015°48'0 0.0 330 / 81007.8 3.7 2.2 3.9
2016-Jun-21 09:00N 79°54' E 015°48'0 0.0 320 / 101007.5 4.0 2.8 3.8
2016-Jun-21 08:00N 79°54' E 015°48'2 0.3 340 / 81007.2 4.5 2.7 3.8
2016-Jun-21 00:00N 79°54' E 015°36'1 0.2 180 / 351003.4 5.7 1.5 3.9
2016-Jun-20 19:00N 79°54' E 015°42'0 0.0 190 / 331000.7 6.6 1.5 3.5
2016-Jun-20 17:00N 79°54' E 015°42'0 0.0 190 / 311000.6 7.2 1.8 3.6
2016-Jun-20 16:00N 79°54' E 015°42'2 1.1 190 / 291000.3 7.3 1.0 3.6
2016-Jun-20 14:00N 79°54' E 015°54'0 0.0 190 / 231000.5 7.7 0.6 3.7
2016-Jun-20 13:00N 79°54' E 015°54'0 0.0 200 / 171000.8 7.8 0.7 3.8
2016-Jun-20 11:00N 79°54' E 015°54'0 0.0 190 / 171000.5 8.0-0.6 3.7
2016-Jun-20 10:00N 79°54' E 015°54'1 1.1 190 / 211000.1 7.6-0.6 3.7
2016-Jun-20 09:00N 79°54' E 015°48'1 0.3 190 / 251000.5 6.3 0.1 3.7
2016-Jun-20 05:00N 79°54' E 015°42'2 2.1 190 / 271000.8 4.9 0.3 3.6
2016-Jun-20 04:00N 79°54' E 015°30'   180 / 311000.8 4.7 0.5 3.7

Dump ship's entire track history